createdAt,value
2019-05-13T00:00:24.925Z,5.77
2019-05-13T00:02:54.452Z,6.27
2019-05-13T00:05:23.363Z,6.73
2019-05-13T00:07:50.832Z,7.80
2019-05-13T00:10:18.047Z,6.97
2019-05-13T00:12:45.252Z,8.70
2019-05-13T00:15:13.976Z,7.63
2019-05-13T00:17:41.456Z,7.00
2019-05-13T00:20:08.744Z,7.03
2019-05-13T00:22:36.164Z,7.03
2019-05-13T00:25:04.233Z,6.43
2019-05-13T00:27:33.746Z,6.13
2019-05-13T00:30:00.822Z,6.30
2019-05-13T00:32:28.021Z,5.97
2019-05-13T00:34:55.189Z,6.30
2019-05-13T00:37:24.445Z,6.30
2019-05-13T00:39:51.680Z,7.37
2019-05-13T00:42:18.896Z,7.23
2019-05-13T00:44:46.112Z,6.60
2019-05-13T00:47:13.438Z,7.03
2019-05-13T00:49:40.772Z,6.20
2019-05-13T00:52:07.952Z,6.40
2019-05-13T00:54:35.173Z,7.30
2019-05-13T00:57:04.138Z,6.67
2019-05-13T00:59:33.934Z,6.30
2019-05-13T01:02:03.615Z,6.40
2019-05-13T01:04:31.017Z,7.13
2019-05-13T01:06:58.221Z,7.40
2019-05-13T01:09:25.432Z,7.63
2019-05-13T01:11:53.767Z,6.53
2019-05-13T01:14:23.345Z,6.90
2019-05-13T01:16:50.309Z,6.43
2019-05-13T01:19:17.525Z,5.80
2019-05-13T01:21:44.977Z,6.17
2019-05-13T01:24:14.317Z,5.53
2019-05-13T01:26:43.640Z,5.40
2019-05-13T01:29:10.484Z,5.07
2019-05-13T01:31:37.739Z,5.20
2019-05-13T01:34:04.925Z,5.33
2019-05-13T01:36:34.107Z,5.33
2019-05-13T01:39:01.326Z,5.43
2019-05-13T01:41:28.700Z,5.10
2019-05-13T01:43:55.980Z,5.67
2019-05-13T01:46:24.146Z,5.40
2019-05-13T01:48:51.485Z,5.57
2019-05-13T01:51:18.684Z,5.60
2019-05-13T01:53:45.904Z,5.80
2019-05-13T01:56:14.119Z,4.60
2019-05-13T01:58:41.632Z,5.37
2019-05-13T02:01:08.830Z,5.53
2019-05-13T02:03:37.079Z,6.00
2019-05-13T02:06:04.425Z,5.77
2019-05-13T02:08:33.864Z,5.23
2019-05-13T02:11:04.416Z,5.70
2019-05-13T02:13:34.068Z,4.93
2019-05-13T02:16:00.629Z,5.50
2019-05-13T02:18:27.996Z,5.90
2019-05-13T02:20:55.950Z,5.30
2019-05-13T02:23:24.102Z,6.13
2019-05-13T02:25:53.839Z,6.23
2019-05-13T02:28:20.907Z,6.30
2019-05-13T02:30:48.250Z,5.67
2019-05-13T02:33:15.502Z,7.10
2019-05-13T02:35:43.539Z,5.93
2019-05-13T02:38:19.656Z,5.57
2019-05-13T02:40:43.246Z,5.37
2019-05-13T02:43:09.314Z,5.37
2019-05-13T02:45:36.809Z,6.00
2019-05-13T02:48:04.003Z,5.43
2019-05-13T02:50:33.720Z,7.63
2019-05-13T02:53:02.475Z,5.60
2019-05-13T02:55:32.650Z,6.40
2019-05-13T02:57:58.545Z,6.20
2019-05-13T03:00:25.905Z,6.13
2019-05-13T03:02:53.115Z,6.20
2019-05-13T03:05:22.081Z,5.83
2019-05-13T03:07:52.792Z,5.80
2019-05-13T03:10:22.448Z,5.80
2019-05-13T03:12:49.155Z,6.37
2019-05-13T03:15:16.340Z,6.43
2019-05-13T03:18:04.506Z,5.93
2019-05-13T03:20:33.391Z,6.93
2019-05-13T03:23:03.108Z,5.93
2019-05-13T03:25:33.040Z,6.20
2019-05-13T03:28:03.092Z,5.33
2019-05-13T03:30:34.568Z,6.90
2019-05-13T03:33:03.897Z,5.37
2019-05-13T03:35:28.340Z,5.80
2019-05-13T03:37:55.648Z,5.73
2019-05-13T03:40:23.462Z,8.10
2019-05-13T03:42:53.497Z,6.73
2019-05-13T03:45:23.271Z,6.30
2019-05-13T03:47:53.006Z,6.67
2019-05-13T03:50:22.656Z,6.33
2019-05-13T03:52:52.256Z,6.00
2019-05-13T03:55:18.461Z,5.77
2019-05-13T03:57:45.665Z,5.53
2019-05-13T04:00:13.546Z,6.20
2019-05-13T04:02:42.906Z,5.57
2019-05-13T04:05:13.244Z,5.30
2019-05-13T04:07:43.127Z,5.40
2019-05-13T04:10:12.912Z,6.30
2019-05-13T04:12:42.361Z,6.30
2019-05-13T04:15:12.352Z,6.90
2019-05-13T04:17:38.297Z,6.83
2019-05-13T04:20:06.270Z,7.07
2019-05-13T04:22:33.712Z,5.30
2019-05-13T04:25:02.462Z,6.10
2019-05-13T04:27:32.698Z,5.93
2019-05-13T04:30:03.038Z,5.43
2019-05-13T04:32:33.187Z,5.17
2019-05-13T04:34:58.181Z,5.83
2019-05-13T04:37:25.575Z,4.60
2019-05-13T04:39:56.474Z,5.37
2019-05-13T04:42:23.113Z,5.63
2019-05-13T04:44:53.191Z,6.27
2019-05-13T04:47:22.692Z,5.00
2019-05-13T04:49:49.025Z,5.03
2019-05-13T04:52:16.374Z,5.30
2019-05-13T04:54:43.982Z,4.73
2019-05-13T04:57:12.362Z,4.77
2019-05-13T04:59:44.367Z,4.50
2019-05-13T05:02:54.792Z,4.77
2019-05-13T05:05:42.246Z,5.03
2019-05-13T05:08:32.816Z,5.40
2019-05-13T05:11:33.269Z,5.20
2019-05-13T05:14:23.533Z,5.07
2019-05-13T05:17:27.029Z,4.30
2019-05-13T05:20:16.459Z,4.27
2019-05-13T05:23:31.918Z,3.90
2019-05-13T05:26:23.053Z,5.13
2019-05-13T05:30:01.915Z,4.10
2019-05-13T05:33:11.577Z,4.30
2019-05-13T05:36:21.666Z,4.07
2019-05-13T05:39:04.852Z,4.00
2019-05-13T05:41:34.208Z,4.17
2019-05-13T05:44:02.425Z,4.03
2019-05-13T05:46:32.397Z,3.83
2019-05-13T05:49:04.864Z,3.70
2019-05-13T05:51:32.816Z,4.13
2019-05-13T05:54:02.548Z,3.90
2019-05-13T05:56:32.484Z,4.73
2019-05-13T05:59:02.861Z,4.13
2019-05-13T06:01:33.132Z,4.17
2019-05-13T06:04:01.512Z,3.80
2019-05-13T06:06:32.712Z,3.20
2019-05-13T06:09:01.753Z,3.40
2019-05-13T06:11:31.728Z,4.00
2019-05-13T06:13:59.157Z,4.13
2019-05-13T06:16:26.356Z,3.37
2019-05-13T06:18:53.574Z,4.00
2019-05-13T06:21:21.478Z,4.07
2019-05-13T06:23:51.721Z,3.70
2019-05-13T06:26:18.657Z,4.30
2019-05-13T06:28:45.952Z,3.70
2019-05-13T06:31:14.308Z,2.87
2019-05-13T06:33:42.285Z,3.10
2019-05-13T06:36:11.365Z,3.50
2019-05-13T06:38:39.017Z,3.27
2019-05-13T06:41:09.275Z,3.60
2019-05-13T06:43:35.381Z,3.50
2019-05-13T06:46:02.585Z,3.20
2019-05-13T06:48:32.159Z,3.83
2019-05-13T06:50:59.196Z,3.20
2019-05-13T06:53:26.704Z,3.70
2019-05-13T06:55:53.912Z,3.27
2019-05-13T06:58:22.285Z,4.10
2019-05-13T07:00:51.650Z,2.93
2019-05-13T07:03:21.783Z,3.70
2019-05-13T07:05:47.968Z,3.40
2019-05-13T07:08:15.343Z,3.50
2019-05-13T07:10:42.785Z,3.53
2019-05-13T07:13:11.429Z,4.00
2019-05-13T07:15:41.395Z,4.37
2019-05-13T07:18:08.108Z,3.60
2019-05-13T07:20:35.312Z,3.80
2019-05-13T07:23:02.541Z,4.83
2019-05-13T07:25:32.423Z,4.20
2019-05-13T07:27:58.996Z,3.43
2019-05-13T07:30:42.483Z,3.90
2019-05-13T07:33:12.282Z,3.70
2019-05-13T07:35:43.152Z,2.90
2019-05-13T07:38:08.757Z,2.83
2019-05-13T07:40:36.392Z,2.93
2019-05-13T07:43:04.053Z,2.90
2019-05-13T07:45:31.679Z,2.60
2019-05-13T07:48:01.259Z,2.83
2019-05-13T07:50:28.234Z,2.80
2019-05-13T07:52:55.453Z,2.80
2019-05-13T07:55:22.777Z,2.60
2019-05-13T07:57:51.530Z,2.60
2019-05-13T08:00:21.735Z,2.83
2019-05-13T08:02:49.229Z,3.17
2019-05-13T08:05:16.472Z,2.50
2019-05-13T08:07:43.665Z,2.27
2019-05-13T08:10:11.680Z,2.33
2019-05-13T08:12:41.171Z,2.13
2019-05-13T08:15:11.748Z,2.43
2019-05-13T08:17:41.221Z,2.10
2019-05-13T08:20:07.746Z,2.60
2019-05-13T08:22:34.962Z,2.40
2019-05-13T08:25:03.262Z,2.07
2019-05-13T08:27:34.949Z,2.70
2019-05-13T08:30:01.720Z,2.60
2019-05-13T08:32:31.261Z,2.40
2019-05-13T08:35:08.355Z,2.47
2019-05-13T08:37:27.295Z,1.90
2019-05-13T08:39:54.560Z,1.97
2019-05-13T08:42:23.510Z,2.37
2019-05-13T08:44:52.255Z,1.73
2019-05-13T08:47:22.211Z,2.20
2019-05-13T08:49:51.846Z,2.47
2019-05-13T08:52:18.395Z,2.30
2019-05-13T08:54:45.689Z,2.23
2019-05-13T08:57:12.952Z,1.50
2019-05-13T08:59:42.234Z,2.40
2019-05-13T09:02:11.558Z,2.03
2019-05-13T09:04:38.636Z,2.23
2019-05-13T09:07:05.934Z,1.57
2019-05-13T09:09:33.126Z,2.40
2019-05-13T09:12:02.451Z,1.80
2019-05-13T09:14:32.125Z,1.70
2019-05-13T09:17:01.541Z,2.10
2019-05-13T09:19:28.136Z,1.87
2019-05-13T09:21:55.335Z,1.90
2019-05-13T09:24:31.131Z,1.33
2019-05-13T09:26:52.724Z,1.70
2019-05-13T09:29:22.408Z,2.10
2019-05-13T09:31:51.686Z,1.90
2019-05-13T09:34:18.424Z,2.20
2019-05-13T09:36:45.721Z,1.90
2019-05-13T09:39:12.908Z,1.93
2019-05-13T09:41:43.671Z,1.70
2019-05-13T09:44:09.220Z,2.20
2019-05-13T09:46:36.416Z,1.77
2019-05-13T09:49:14.929Z,1.90
2019-05-13T09:51:32.692Z,1.97
2019-05-13T09:54:01.308Z,1.87
2019-05-13T09:56:31.693Z,1.80
2019-05-13T09:58:58.164Z,2.60
2019-05-13T10:01:25.351Z,1.70
2019-05-13T10:03:57.197Z,1.77
2019-05-13T10:06:22.273Z,1.70
2019-05-13T10:08:52.239Z,1.70
2019-05-13T10:11:18.745Z,1.43
2019-05-13T10:13:45.937Z,1.80
2019-05-13T10:16:13.150Z,2.27
2019-05-13T10:18:42.104Z,2.00
2019-05-13T10:21:09.420Z,1.77
2019-05-13T10:23:36.641Z,1.40
2019-05-13T10:26:06.578Z,2.10
2019-05-13T10:28:34.158Z,1.67
2019-05-13T10:31:01.359Z,1.80
2019-05-13T10:33:28.586Z,2.10
2019-05-13T10:35:55.886Z,1.90
2019-05-13T10:38:27.542Z,2.00
2019-05-13T10:40:52.451Z,2.03
2019-05-13T10:43:30.873Z,2.13
2019-05-13T10:45:49.436Z,1.70
2019-05-13T10:48:18.242Z,1.57
2019-05-13T10:50:45.509Z,2.40
2019-05-13T10:53:12.677Z,1.60
2019-05-13T10:55:41.825Z,1.80
2019-05-13T10:58:08.965Z,1.50
2019-05-13T11:00:42.459Z,1.43
2019-05-13T11:03:11.776Z,1.60
2019-05-13T11:05:42.109Z,1.50
2019-05-13T11:08:08.268Z,1.83
2019-05-13T11:10:35.609Z,1.80
2019-05-13T11:13:06.252Z,1.97
2019-05-13T11:15:40.400Z,1.67
2019-05-13T11:18:03.038Z,1.63
2019-05-13T11:20:32.377Z,1.80
2019-05-13T11:22:59.482Z,1.90
2019-05-13T11:25:26.776Z,2.80
2019-05-13T11:27:58.030Z,2.17
2019-05-13T11:30:23.400Z,1.87
2019-05-13T11:32:51.687Z,1.80
2019-05-13T11:35:19.085Z,1.80
2019-05-13T11:37:46.262Z,1.63
2019-05-13T11:40:14.053Z,2.77
2019-05-13T11:42:42.176Z,1.70
2019-05-13T11:45:11.667Z,2.30
2019-05-13T11:47:40.926Z,2.20
2019-05-13T11:50:08.592Z,2.30
2019-05-13T11:52:37.691Z,1.90
2019-05-13T11:55:05.186Z,2.27
2019-05-13T11:57:32.666Z,1.73
2019-05-13T12:00:02.452Z,1.83
2019-05-13T12:02:29.048Z,2.43
2019-05-13T12:04:56.243Z,1.60
2019-05-13T12:07:23.729Z,2.03
2019-05-13T12:09:51.799Z,2.10
2019-05-13T12:12:19.274Z,1.77
2019-05-13T12:15:17.751Z,1.90
2019-05-13T12:17:15.616Z,1.97
2019-05-13T12:19:42.826Z,2.07
2019-05-13T12:22:12.946Z,2.00
2019-05-13T12:24:41.322Z,1.70
2019-05-13T12:27:08.178Z,2.03
2019-05-13T12:29:35.664Z,2.03
2019-05-13T12:32:03.438Z,1.97
2019-05-13T12:34:39.503Z,2.67
2019-05-13T12:37:03.254Z,2.20
2019-05-13T12:39:31.463Z,2.03
2019-05-13T12:41:58.280Z,2.20
2019-05-13T12:44:25.506Z,1.87
2019-05-13T12:46:54.289Z,1.70
2019-05-13T12:49:22.162Z,1.80
2019-05-13T12:51:51.703Z,1.87
2019-05-13T12:54:18.660Z,1.60
2019-05-13T12:56:45.838Z,1.50
2019-05-13T12:59:13.648Z,1.80
2019-05-13T13:01:41.065Z,2.47
2019-05-13T13:04:08.529Z,1.60
2019-05-13T13:06:40.574Z,2.17
2019-05-13T13:09:05.461Z,1.77
2019-05-13T13:11:32.756Z,1.97
2019-05-13T13:14:04.980Z,1.90
2019-05-13T13:16:34.247Z,2.10
2019-05-13T13:18:58.261Z,1.77
2019-05-13T13:21:33.229Z,2.10
2019-05-13T13:23:54.557Z,1.93
2019-05-13T13:26:22.049Z,1.73
2019-05-13T13:28:49.353Z,1.90
2019-05-13T13:31:16.643Z,2.10
2019-05-13T13:33:45.263Z,1.83
2019-05-13T13:36:15.466Z,1.70
2019-05-13T13:38:43.685Z,1.47
2019-05-13T13:41:22.000Z,1.73
2019-05-13T13:43:42.020Z,2.00
2019-05-13T13:46:25.301Z,2.20
2019-05-13T13:48:38.414Z,1.93
2019-05-13T13:51:06.030Z,2.20
2019-05-13T13:53:33.548Z,1.80
2019-05-13T13:56:02.307Z,2.00
2019-05-13T13:58:32.025Z,1.83
2019-05-13T14:01:07.236Z,1.50
2019-05-13T14:03:27.969Z,1.57
2019-05-13T14:05:55.252Z,1.60
2019-05-13T14:08:22.761Z,1.83
2019-05-13T14:11:03.543Z,1.77
2019-05-13T14:13:32.427Z,2.23
2019-05-13T14:16:01.874Z,1.77
2019-05-13T14:18:31.479Z,1.70
2019-05-13T14:20:58.503Z,1.47
2019-05-13T14:23:25.713Z,1.80
2019-05-13T14:25:53.374Z,1.87
2019-05-13T14:28:22.942Z,1.80
2019-05-13T14:30:51.463Z,1.63
2019-05-13T14:33:18.930Z,2.23
2019-05-13T14:35:46.292Z,1.97
2019-05-13T14:38:13.525Z,1.87
2019-05-13T14:40:40.746Z,1.63
2019-05-13T14:43:08.146Z,1.90
2019-05-13T14:45:35.323Z,2.47
2019-05-13T14:48:02.521Z,1.50
2019-05-13T14:50:31.856Z,4.70
2019-05-13T14:53:01.312Z,1.80
2019-05-13T14:55:28.048Z,2.00
2019-05-13T14:57:55.244Z,1.80
2019-05-13T15:00:22.757Z,2.10
2019-05-13T15:02:51.783Z,1.80
2019-05-13T15:05:19.229Z,1.80
2019-05-13T15:07:46.437Z,1.40
2019-05-13T15:10:13.716Z,2.60
2019-05-13T15:12:41.512Z,2.00
2019-05-13T15:15:12.538Z,1.90
2019-05-13T15:17:39.329Z,2.00
2019-05-13T15:20:06.905Z,2.27
2019-05-13T15:22:34.155Z,1.97
2019-05-13T15:25:02.720Z,2.43
2019-05-13T15:27:31.694Z,2.57
2019-05-13T15:30:14.406Z,2.07
2019-05-13T15:32:28.466Z,2.00
2019-05-13T15:34:55.674Z,3.70
2019-05-13T15:37:22.874Z,1.90
2019-05-13T15:39:51.896Z,2.07
2019-05-13T15:42:20.831Z,2.87
2019-05-13T15:44:48.244Z,2.27
2019-05-13T15:47:22.843Z,2.17
2019-05-13T15:49:44.532Z,1.63
2019-05-13T15:52:12.068Z,2.10
2019-05-13T15:54:41.444Z,2.10
2019-05-13T15:57:08.520Z,2.10
2019-05-13T15:59:35.721Z,2.30
2019-05-13T16:02:02.933Z,1.97
2019-05-13T16:04:30.531Z,2.20
2019-05-13T16:06:57.701Z,3.07
2019-05-13T16:09:24.913Z,2.07
2019-05-13T16:11:52.291Z,2.07
2019-05-13T16:14:21.881Z,2.10
2019-05-13T16:16:49.060Z,2.37
2019-05-13T16:19:16.458Z,2.60
2019-05-13T16:21:43.929Z,2.40
2019-05-13T16:24:11.983Z,2.57
2019-05-13T16:26:42.327Z,3.40
2019-05-13T16:29:08.729Z,2.43
2019-05-13T16:31:35.934Z,2.73
2019-05-13T16:34:04.476Z,2.13
2019-05-13T16:36:31.669Z,1.87
2019-05-13T16:39:02.513Z,2.10
2019-05-13T16:41:31.609Z,2.00
2019-05-13T16:43:58.809Z,2.00
2019-05-13T16:46:26.014Z,2.00
2019-05-13T16:48:53.210Z,1.90
2019-05-13T16:51:21.623Z,1.87
2019-05-13T16:53:48.996Z,1.93
2019-05-13T16:56:26.283Z,2.00
2019-05-13T16:58:45.308Z,2.33
2019-05-13T17:01:12.511Z,1.70
2019-05-13T17:03:41.389Z,1.80
2019-05-13T17:06:08.768Z,2.17
2019-05-13T17:08:35.965Z,2.13
2019-05-13T17:11:03.157Z,2.30
2019-05-13T17:13:31.540Z,2.20
2019-05-13T17:16:01.368Z,1.93
2019-05-13T17:18:28.570Z,2.07
2019-05-13T17:20:55.757Z,2.30
2019-05-13T17:23:22.990Z,2.30
2019-05-13T17:25:51.975Z,2.37
2019-05-13T17:28:21.844Z,2.77
2019-05-13T17:30:48.368Z,2.20
2019-05-13T17:33:15.556Z,1.97
2019-05-13T17:35:42.780Z,1.90
2019-05-13T17:38:11.448Z,1.90
2019-05-13T17:40:38.789Z,2.47
2019-05-13T17:43:05.961Z,2.30
2019-05-13T17:45:33.160Z,2.80
2019-05-13T17:48:01.105Z,2.20
2019-05-13T17:50:28.544Z,1.63
2019-05-13T17:52:55.953Z,2.20
2019-05-13T17:55:23.188Z,4.47
2019-05-13T17:57:50.530Z,2.00
2019-05-13T18:00:17.725Z,2.40
2019-05-13T18:02:44.912Z,1.93
2019-05-13T18:05:13.105Z,2.10
2019-05-13T18:07:41.988Z,2.20
2019-05-13T18:10:13.736Z,2.20
2019-05-13T18:12:41.795Z,2.07
2019-05-13T18:15:11.548Z,2.00
2019-05-13T18:17:38.878Z,2.07
2019-05-13T18:20:06.370Z,2.00
2019-05-13T18:22:33.544Z,2.40
2019-05-13T18:25:02.530Z,2.20
2019-05-13T18:27:32.319Z,1.90
2019-05-13T18:30:01.951Z,1.83
2019-05-13T18:32:28.828Z,2.10
2019-05-13T18:34:56.025Z,1.73
2019-05-13T18:37:23.204Z,2.00
2019-05-13T18:39:52.040Z,2.50
2019-05-13T18:42:22.180Z,1.90
2019-05-13T18:44:48.872Z,2.03
2019-05-13T18:47:16.064Z,1.97
2019-05-13T18:49:43.288Z,2.30
2019-05-13T18:52:11.557Z,2.57
2019-05-13T18:54:39.124Z,1.83
2019-05-13T18:57:06.290Z,2.10
2019-05-13T18:59:33.492Z,2.47
2019-05-13T19:02:01.467Z,2.47
2019-05-13T19:04:31.122Z,2.60
2019-05-13T19:06:58.085Z,2.63
2019-05-13T19:09:25.300Z,2.70
2019-05-13T19:11:52.471Z,2.17
2019-05-13T19:14:21.218Z,2.50
2019-05-13T19:16:48.654Z,2.97
2019-05-13T19:19:19.440Z,2.23
2019-05-13T19:21:44.969Z,2.20
2019-05-13T19:24:13.388Z,2.63
2019-05-13T19:26:41.639Z,2.00
2019-05-13T19:29:11.319Z,1.83
2019-05-13T19:31:38.241Z,2.27
2019-05-13T19:34:05.463Z,2.70
2019-05-13T19:36:32.660Z,2.27
2019-05-13T19:39:01.761Z,2.50
2019-05-13T19:41:28.941Z,2.47
2019-05-13T19:43:56.128Z,2.60
2019-05-13T19:46:25.691Z,2.17
2019-05-13T19:48:52.485Z,2.40
2019-05-13T19:51:21.634Z,2.00
2019-05-13T19:53:48.789Z,2.10
2019-05-13T19:56:15.982Z,2.23
2019-05-13T19:58:43.177Z,2.07
2019-05-13T20:01:11.649Z,2.50
2019-05-13T20:03:39.192Z,2.40
2019-05-13T20:06:06.381Z,2.50
2019-05-13T20:08:33.587Z,1.90
2019-05-13T20:11:02.081Z,2.33
2019-05-13T20:13:30.273Z,3.00
2019-05-13T20:15:57.464Z,2.43
2019-05-13T20:18:26.515Z,2.50
2019-05-13T20:20:53.805Z,2.23
2019-05-13T20:23:21.366Z,2.27
2019-05-13T20:25:52.222Z,2.80
2019-05-13T20:28:19.925Z,2.20
2019-05-13T20:30:47.141Z,2.33
2019-05-13T20:33:14.345Z,2.40
2019-05-13T20:35:42.068Z,2.33
2019-05-13T20:38:11.444Z,2.20
2019-05-13T20:40:41.196Z,2.50
2019-05-13T20:43:07.732Z,2.70
2019-05-13T20:45:35.376Z,2.30
2019-05-13T20:48:02.572Z,2.70
2019-05-13T20:50:31.648Z,2.60
2019-05-13T20:52:58.988Z,2.33
2019-05-13T20:55:26.157Z,2.53
2019-05-13T20:57:53.354Z,2.80
2019-05-13T21:00:20.672Z,2.70
2019-05-13T21:02:47.868Z,2.40
2019-05-13T21:05:15.069Z,2.50
2019-05-13T21:07:42.277Z,2.33
2019-05-13T21:10:11.931Z,2.07
2019-05-13T21:12:39.104Z,2.50
2019-05-13T21:15:06.498Z,2.80
2019-05-13T21:17:33.712Z,2.83
2019-05-13T21:20:17.559Z,2.60
2019-05-13T21:22:31.733Z,2.60
2019-05-13T21:24:59.111Z,2.67
2019-05-13T21:27:26.674Z,3.00
2019-05-13T21:29:53.868Z,3.07
2019-05-13T21:32:21.418Z,2.77
2019-05-13T21:34:48.800Z,3.23
2019-05-13T21:37:16.096Z,2.57
2019-05-13T21:39:43.266Z,2.97
2019-05-13T21:42:11.489Z,2.90
2019-05-13T21:44:38.874Z,3.20
2019-05-13T21:47:06.068Z,3.03
2019-05-13T21:49:33.284Z,2.77
2019-05-13T21:52:00.709Z,2.53
2019-05-13T21:54:27.892Z,3.23
2019-05-13T21:56:55.099Z,2.90
2019-05-13T21:59:23.287Z,3.20
2019-05-13T22:01:52.242Z,3.23
2019-05-13T22:04:21.458Z,3.00
2019-05-13T22:06:48.676Z,3.07
2019-05-13T22:09:15.884Z,3.47
2019-05-13T22:11:43.176Z,3.10
2019-05-13T22:14:11.333Z,2.80
2019-05-13T22:16:41.111Z,2.67
2019-05-13T22:19:07.832Z,2.23
2019-05-13T22:21:35.136Z,3.10
2019-05-13T22:24:02.394Z,2.90
2019-05-13T22:26:31.175Z,2.60
2019-05-13T22:28:58.524Z,3.00
2019-05-13T22:31:25.702Z,2.60
2019-05-13T22:33:52.922Z,2.53
2019-05-13T22:36:21.284Z,3.37
2019-05-13T22:38:48.731Z,3.20
2019-05-13T22:41:15.948Z,3.60
2019-05-13T22:43:54.555Z,2.63
2019-05-13T22:46:14.183Z,2.73
2019-05-13T22:48:41.906Z,3.13
2019-05-13T22:51:11.634Z,3.23
2019-05-13T22:53:38.413Z,4.07
2019-05-13T22:56:05.617Z,3.77
2019-05-13T22:58:32.836Z,2.83
2019-05-13T23:01:02.240Z,4.07
2019-05-13T23:03:29.104Z,3.57
2019-05-13T23:05:56.290Z,3.10
2019-05-13T23:08:23.484Z,3.33
2019-05-13T23:10:51.429Z,3.83
2019-05-13T23:13:18.925Z,3.53
2019-05-13T23:15:46.100Z,3.13
2019-05-13T23:18:13.305Z,3.70
2019-05-13T23:20:41.059Z,4.07
2019-05-13T23:23:08.363Z,3.00
2019-05-13T23:25:35.593Z,3.00
2019-05-13T23:28:02.885Z,3.17
2019-05-13T23:30:31.238Z,3.00
2019-05-13T23:32:58.548Z,3.60
2019-05-13T23:35:25.784Z,2.83
2019-05-13T23:37:52.990Z,3.47
2019-05-13T23:40:20.189Z,3.40
2019-05-13T23:42:47.409Z,3.20
2019-05-13T23:45:14.772Z,3.40
2019-05-13T23:47:42.057Z,3.07
2019-05-13T23:50:09.775Z,3.33
2019-05-13T23:52:36.972Z,2.63
2019-05-13T23:55:06.037Z,3.90
2019-05-13T23:57:33.428Z,3.93
